sensor_id;sensor_type;location;lat;lon;timestamp;pressure;altitude;pressure_sealevel;temperature;humidity
70254;BME280;57649;42.968;1.608;2023-04-07T00:01:49;97486.50;;;6.62;67.66
70254;BME280;57649;42.968;1.608;2023-04-07T00:04:15;97486.47;;;6.72;66.86
70254;BME280;57649;42.968;1.608;2023-04-07T00:06:40;97485.22;;;6.76;67.32
70254;BME280;57649;42.968;1.608;2023-04-07T00:09:08;97487.03;;;6.66;67.98
70254;BME280;57649;42.968;1.608;2023-04-07T00:11:33;97486.22;;;6.65;67.57
70254;BME280;57649;42.968;1.608;2023-04-07T00:13:59;97487.06;;;6.36;68.13
70254;BME280;57649;42.968;1.608;2023-04-07T00:16:24;97490.16;;;6.32;68.66
70254;BME280;57649;42.968;1.608;2023-04-07T00:18:50;97493.34;;;6.35;68.17
70254;BME280;57649;42.968;1.608;2023-04-07T00:21:15;97483.13;;;6.41;68.19
70254;BME280;57649;42.968;1.608;2023-04-07T00:23:40;97479.22;;;6.45;67.54
70254;BME280;57649;42.968;1.608;2023-04-07T00:26:07;97488.59;;;6.49;67.26
70254;BME280;57649;42.968;1.608;2023-04-07T00:28:32;97483.84;;;6.52;67.60
70254;BME280;57649;42.968;1.608;2023-04-07T00:30:57;97493.06;;;6.48;67.62
70254;BME280;57649;42.968;1.608;2023-04-07T00:33:23;97489.88;;;6.45;67.54
70254;BME280;57649;42.968;1.608;2023-04-07T00:35:48;97487.50;;;6.32;68.37
70254;BME280;57649;42.968;1.608;2023-04-07T00:38:14;97466.34;;;6.40;68.10
70254;BME280;57649;42.968;1.608;2023-04-07T00:40:39;97457.38;;;6.31;68.73
70254;BME280;57649;42.968;1.608;2023-04-07T00:43:04;97462.97;;;6.38;68.39
70254;BME280;57649;42.968;1.608;2023-04-07T00:45:30;97456.69;;;6.29;68.76
70254;BME280;57649;42.968;1.608;2023-04-07T00:47:56;97451.38;;;6.29;68.58
70254;BME280;57649;42.968;1.608;2023-04-07T00:50:22;97445.75;;;6.42;68.79
70254;BME280;57649;42.968;1.608;2023-04-07T00:52:49;97454.84;;;6.49;68.22
70254;BME280;57649;42.968;1.608;2023-04-07T00:55:14;97449.81;;;6.56;67.95
70254;BME280;57649;42.968;1.608;2023-04-07T00:57:40;97442.28;;;6.42;68.37
70254;BME280;57649;42.968;1.608;2023-04-07T01:00:07;97448.44;;;6.32;69.28
70254;BME280;57649;42.968;1.608;2023-04-07T01:02:47;97444.66;;;6.45;69.10
70254;BME280;57649;42.968;1.608;2023-04-07T01:05:23;97440.72;;;6.49;68.87
70254;BME280;57649;42.968;1.608;2023-04-07T01:08:16;97438.34;;;6.36;69.19
70254;BME280;57649;42.968;1.608;2023-04-07T01:13:27;97442.28;;;6.32;68.37
70254;BME280;57649;42.968;1.608;2023-04-07T01:15:57;97442.69;;;6.18;68.78
70254;BME280;57649;42.968;1.608;2023-04-07T01:18:34;97433.59;;;6.10;69.07
70254;BME280;57649;42.968;1.608;2023-04-07T01:21:05;97417.53;;;6.12;68.72
70254;BME280;57649;42.968;1.608;2023-04-07T01:23:48;97410.94;;;5.96;69.75
70254;BME280;57649;42.968;1.608;2023-04-07T01:26:19;97416.53;;;6.13;69.05
70254;BME280;57649;42.968;1.608;2023-04-07T01:28:55;97409.13;;;6.07;69.65
70254;BME280;57649;42.968;1.608;2023-04-07T01:31:22;97406.03;;;6.21;69.52
70254;BME280;57649;42.968;1.608;2023-04-07T01:33:51;97411.91;;;6.15;69.25
70254;BME280;57649;42.968;1.608;2023-04-07T01:36:17;97402.28;;;6.14;69.33
70254;BME280;57649;42.968;1.608;2023-04-07T01:38:44;97398.34;;;6.18;69.25
70254;BME280;57649;42.968;1.608;2023-04-07T01:41:10;97403.09;;;6.24;69.02
70254;BME280;57649;42.968;1.608;2023-04-07T01:43:40;97398.91;;;6.22;69.69
70254;BME280;57649;42.968;1.608;2023-04-07T01:46:06;97396.38;;;6.20;69.08
70254;BME280;57649;42.968;1.608;2023-04-07T01:48:33;97394.84;;;6.18;69.43
70254;BME280;57649;42.968;1.608;2023-04-07T01:51:00;97394.16;;;6.15;69.39
70254;BME280;57649;42.968;1.608;2023-04-07T01:53:26;97391.06;;;6.01;70.46
70254;BME280;57649;42.968;1.608;2023-04-07T01:55:52;97390.53;;;6.07;70.20
70254;BME280;57649;42.968;1.608;2023-04-07T01:58:18;97391.16;;;5.79;70.77
70254;BME280;57649;42.968;1.608;2023-04-07T02:00:44;97386.16;;;5.86;70.99
70254;BME280;57649;42.968;1.608;2023-04-07T02:03:17;97394.66;;;5.80;70.71
70254;BME280;57649;42.968;1.608;2023-04-07T02:05:49;97390.19;;;5.81;70.73
70254;BME280;57649;42.968;1.608;2023-04-07T02:08:16;97388.25;;;5.83;70.25
70254;BME280;57649;42.968;1.608;2023-04-07T02:10:46;97393.97;;;5.78;71.02
70254;BME280;57649;42.968;1.608;2023-04-07T02:13:15;97391.59;;;5.85;70.69
70254;BME280;57649;42.968;1.608;2023-04-07T02:15:42;97392.84;;;5.81;71.04
70254;BME280;57649;42.968;1.608;2023-04-07T02:18:09;97397.19;;;5.82;70.81
70254;BME280;57649;42.968;1.608;2023-04-07T02:20:37;97390.34;;;5.79;71.49
70254;BME280;57649;42.968;1.608;2023-04-07T02:23:06;97382.78;;;5.74;70.90
70254;BME280;57649;42.968;1.608;2023-04-07T02:25:32;97371.16;;;5.66;71.68
70254;BME280;57649;42.968;1.608;2023-04-07T02:27:58;97388.09;;;5.65;71.56
70254;BME280;57649;42.968;1.608;2023-04-07T02:30:25;97381.22;;;5.62;71.60
70254;BME280;57649;42.968;1.608;2023-04-07T02:32:51;97373.09;;;5.54;71.85
70254;BME280;57649;42.968;1.608;2023-04-07T02:35:17;97379.81;;;5.48;71.57
70254;BME280;57649;42.968;1.608;2023-04-07T02:37:43;97374.75;;;5.35;72.43
70254;BME280;57649;42.968;1.608;2023-04-07T02:40:09;97374.50;;;5.48;72.38
70254;BME280;57649;42.968;1.608;2023-04-07T02:42:34;97367.50;;;5.47;72.80
70254;BME280;57649;42.968;1.608;2023-04-07T02:45:01;97367.22;;;5.40;72.58
70254;BME280;57649;42.968;1.608;2023-04-07T02:47:27;97363.44;;;5.43;72.58
70254;BME280;57649;42.968;1.608;2023-04-07T02:49:52;97366.78;;;5.45;72.56
70254;BME280;57649;42.968;1.608;2023-04-07T02:52:18;97361.22;;;5.48;72.76
70254;BME280;57649;42.968;1.608;2023-04-07T02:54:43;97361.34;;;5.37;72.91
70254;BME280;57649;42.968;1.608;2023-04-07T02:57:08;97366.66;;;5.37;72.97
70254;BME280;57649;42.968;1.608;2023-04-07T02:59:34;97363.69;;;5.40;72.57
70254;BME280;57649;42.968;1.608;2023-04-07T03:02:00;97351.53;;;5.28;72.90
70254;BME280;57649;42.968;1.608;2023-04-07T03:04:25;97356.03;;;5.37;72.80
70254;BME280;57649;42.968;1.608;2023-04-07T03:06:51;97360.09;;;5.41;72.46
70254;BME280;57649;42.968;1.608;2023-04-07T03:09:17;97364.94;;;5.26;73.01
70254;BME280;57649;42.968;1.608;2023-04-07T03:11:42;97355.28;;;5.15;73.42
70254;BME280;57649;42.968;1.608;2023-04-07T03:14:07;97366.28;;;5.11;73.78
70254;BME280;57649;42.968;1.608;2023-04-07T03:16:33;97366.81;;;5.05;73.79
70254;BME280;57649;42.968;1.608;2023-04-07T03:18:58;97359.31;;;5.10;74.04
70254;BME280;57649;42.968;1.608;2023-04-07T03:21:24;97355.00;;;5.18;73.74
70254;BME280;57649;42.968;1.608;2023-04-07T03:23:49;97350.28;;;5.22;73.53
70254;BME280;57649;42.968;1.608;2023-04-07T03:26:15;97349.28;;;5.23;73.47
70254;BME280;57649;42.968;1.608;2023-04-07T03:28:40;97343.81;;;5.15;73.93
70254;BME280;57649;42.968;1.608;2023-04-07T03:31:06;97346.22;;;5.28;73.28
70254;BME280;57649;42.968;1.608;2023-04-07T03:33:31;97348.88;;;5.28;72.73
70254;BME280;57649;42.968;1.608;2023-04-07T03:35:56;97347.31;;;5.25;73.31
70254;BME280;57649;42.968;1.608;2023-04-07T03:38:22;97343.13;;;5.23;73.05
70254;BME280;57649;42.968;1.608;2023-04-07T03:40:47;97342.88;;;5.26;73.33
70254;BME280;57649;42.968;1.608;2023-04-07T03:43:13;97343.28;;;5.31;73.31
70254;BME280;57649;42.968;1.608;2023-04-07T03:45:40;97341.75;;;5.28;73.36
70254;BME280;57649;42.968;1.608;2023-04-07T03:48:06;97334.75;;;5.17;73.48
70254;BME280;57649;42.968;1.608;2023-04-07T03:50:36;97337.84;;;5.23;74.14
70254;BME280;57649;42.968;1.608;2023-04-07T03:53:01;97335.88;;;5.15;73.66
70254;BME280;57649;42.968;1.608;2023-04-07T03:55:27;97322.69;;;5.04;74.12
70254;BME280;57649;42.968;1.608;2023-04-07T03:57:52;97329.38;;;4.98;74.64
70254;BME280;57649;42.968;1.608;2023-04-07T04:00:18;97323.78;;;4.91;74.55
70254;BME280;57649;42.968;1.608;2023-04-07T04:02:43;97317.63;;;4.91;74.93
70254;BME280;57649;42.968;1.608;2023-04-07T04:05:09;97320.44;;;4.89;75.33
70254;BME280;57649;42.968;1.608;2023-04-07T04:07:34;97325.06;;;4.97;75.01
70254;BME280;57649;42.968;1.608;2023-04-07T04:10:00;97324.94;;;4.98;74.96
70254;BME280;57649;42.968;1.608;2023-04-07T04:12:26;97331.91;;;4.99;75.19
70254;BME280;57649;42.968;1.608;2023-04-07T04:14:51;97331.91;;;4.99;74.90
70254;BME280;57649;42.968;1.608;2023-04-07T04:17:17;97325.91;;;5.07;74.57
70254;BME280;57649;42.968;1.608;2023-04-07T04:19:42;97329.13;;;5.01;74.48
70254;BME280;57649;42.968;1.608;2023-04-07T04:22:07;97325.06;;;4.97;74.73
70254;BME280;57649;42.968;1.608;2023-04-07T04:24:33;97325.00;;;4.87;75.53
70254;BME280;57649;42.968;1.608;2023-04-07T04:26:58;97333.38;;;4.82;75.29
70254;BME280;57649;42.968;1.608;2023-04-07T04:29:23;97329.00;;;4.72;75.51
70254;BME280;57649;42.968;1.608;2023-04-07T04:31:49;97334.44;;;4.70;75.80
70254;BME280;57649;42.968;1.608;2023-04-07T04:34:15;97328.69;;;4.65;75.89
70254;BME280;57649;42.968;1.608;2023-04-07T04:36:40;97331.97;;;4.78;75.46
70254;BME280;57649;42.968;1.608;2023-04-07T04:39:05;97329.25;;;4.69;75.80
70254;BME280;57649;42.968;1.608;2023-04-07T04:41:31;97332.50;;;4.72;76.22
70254;BME280;57649;42.968;1.608;2023-04-07T04:43:56;97333.75;;;4.78;76.02
70254;BME280;57649;42.968;1.608;2023-04-07T04:46:22;97336.56;;;4.76;75.73
70254;BME280;57649;42.968;1.608;2023-04-07T04:48:47;97334.56;;;4.69;76.46
70254;BME280;57649;42.968;1.608;2023-04-07T04:51:12;97327.94;;;4.84;76.15
70254;BME280;57649;42.968;1.608;2023-04-07T04:53:38;97327.63;;;4.77;75.68
70254;BME280;57649;42.968;1.608;2023-04-07T04:56:04;97327.75;;;4.76;76.13
70254;BME280;57649;42.968;1.608;2023-04-07T04:58:29;97339.56;;;4.62;76.68
70254;BME280;57649;42.968;1.608;2023-04-07T05:00:55;97332.41;;;4.53;76.46
70254;BME280;57649;42.968;1.608;2023-04-07T05:03:23;97333.59;;;4.39;76.82
70254;BME280;57649;42.968;1.608;2023-04-07T05:05:49;97326.63;;;4.38;77.19
70254;BME280;57649;42.968;1.608;2023-04-07T05:08:14;97323.88;;;4.49;77.51
70254;BME280;57649;42.968;1.608;2023-04-07T05:10:39;97330.97;;;4.49;77.64
70254;BME280;57649;42.968;1.608;2023-04-07T05:13:05;97334.50;;;4.49;77.51
70254;BME280;57649;42.968;1.608;2023-04-07T05:15:30;97331.97;;;4.48;77.53
70254;BME280;57649;42.968;1.608;2023-04-07T05:17:56;97320.22;;;4.40;77.97
70254;BME280;57649;42.968;1.608;2023-04-07T05:20:21;97323.75;;;4.51;77.95
70254;BME280;57649;42.968;1.608;2023-04-07T05:22:46;97330.13;;;4.69;77.57
70254;BME280;57649;42.968;1.608;2023-04-07T05:25:12;97327.28;;;4.61;77.75
70254;BME280;57649;42.968;1.608;2023-04-07T05:27:37;97323.75;;;4.51;77.82
70254;BME280;57649;42.968;1.608;2023-04-07T05:30:03;97324.97;;;4.47;77.77
70254;BME280;57649;42.968;1.608;2023-04-07T05:32:31;97321.38;;;4.48;77.53
70254;BME280;57649;42.968;1.608;2023-04-07T05:34:57;97324.28;;;4.44;77.69
70254;BME280;57649;42.968;1.608;2023-04-07T05:37:22;97332.88;;;4.58;77.19
70254;BME280;57649;42.968;1.608;2023-04-07T05:39:48;97334.28;;;4.62;77.33
70254;BME280;57649;42.968;1.608;2023-04-07T05:42:13;97331.63;;;4.62;76.48
70254;BME280;57649;42.968;1.608;2023-04-07T05:44:39;97324.91;;;4.58;76.88
70254;BME280;57649;42.968;1.608;2023-04-07T05:47:04;97333.38;;;4.52;76.85
70254;BME280;57649;42.968;1.608;2023-04-07T05:49:34;97327.63;;;4.47;77.23
70254;BME280;57649;42.968;1.608;2023-04-07T05:51:59;97331.09;;;4.68;76.97
70254;BME280;57649;42.968;1.608;2023-04-07T05:54:25;97342.75;;;4.87;76.53
70254;BME280;57649;42.968;1.608;2023-04-07T05:56:50;97339.94;;;4.78;77.02
70254;BME280;57649;42.968;1.608;2023-04-07T05:59:16;97344.38;;;4.78;76.78
70254;BME280;57649;42.968;1.608;2023-04-07T06:01:41;97341.91;;;4.86;76.56
70254;BME280;57649;42.968;1.608;2023-04-07T06:04:07;97350.00;;;4.85;76.22
70254;BME280;57649;42.968;1.608;2023-04-07T06:06:32;97342.38;;;4.70;76.55
70254;BME280;57649;42.968;1.608;2023-04-07T06:08:57;97341.16;;;4.74;76.41
70254;BME280;57649;42.968;1.608;2023-04-07T06:11:24;97350.81;;;4.85;75.95
70254;BME280;57649;42.968;1.608;2023-04-07T06:13:49;97348.34;;;4.84;76.16
70254;BME280;57649;42.968;1.608;2023-04-07T06:16:15;97350.03;;;4.94;75.55
70254;BME280;57649;42.968;1.608;2023-04-07T06:18:42;97343.06;;;5.03;75.58
70254;BME280;57649;42.968;1.608;2023-04-07T06:21:07;97340.41;;;4.93;75.95
70254;BME280;57649;42.968;1.608;2023-04-07T06:23:33;97346.44;;;5.05;75.71
70254;BME280;57649;42.968;1.608;2023-04-07T06:25:58;97342.56;;;5.09;75.39
70254;BME280;57649;42.968;1.608;2023-04-07T06:28:24;97354.31;;;5.26;75.29
70254;BME280;57649;42.968;1.608;2023-04-07T06:30:50;97355.28;;;5.25;75.35
70254;BME280;57649;42.968;1.608;2023-04-07T06:33:15;97353.31;;;5.17;75.24
70254;BME280;57649;42.968;1.608;2023-04-07T06:35:40;97357.25;;;5.23;75.57
70254;BME280;57649;42.968;1.608;2023-04-07T06:38:06;97361.16;;;5.29;75.85
70254;BME280;57649;42.968;1.608;2023-04-07T06:40:32;97355.59;;;5.22;75.18
70254;BME280;57649;42.968;1.608;2023-04-07T06:42:57;97352.94;;;5.22;76.35
70254;BME280;57649;42.968;1.608;2023-04-07T06:45:23;97368.00;;;5.21;76.10
70254;BME280;57649;42.968;1.608;2023-04-07T06:47:48;97356.44;;;5.42;75.27
70254;BME280;57649;42.968;1.608;2023-04-07T06:50:14;97368.06;;;5.41;75.75
70254;BME280;57649;42.968;1.608;2023-04-07T06:52:41;97360.06;;;5.31;74.88
70254;BME280;57649;42.968;1.608;2023-04-07T06:55:07;97366.22;;;5.32;75.03
70254;BME280;57649;42.968;1.608;2023-04-07T06:57:33;97370.13;;;5.28;75.20
70254;BME280;57649;42.968;1.608;2023-04-07T06:59:58;97366.66;;;5.47;74.62
70254;BME280;57649;42.968;1.608;2023-04-07T07:02:23;97369.63;;;5.53;74.58
70254;BME280;57649;42.968;1.608;2023-04-07T07:04:50;97375.75;;;5.64;74.11
70254;BME280;57649;42.968;1.608;2023-04-07T07:07:15;97367.41;;;5.78;73.91
70254;BME280;57649;42.968;1.608;2023-04-07T07:09:40;97368.84;;;6.02;73.18
70254;BME280;57649;42.968;1.608;2023-04-07T07:12:06;97364.75;;;6.17;73.32
70254;BME280;57649;42.968;1.608;2023-04-07T07:14:31;97365.59;;;6.27;72.04
70254;BME280;57649;42.968;1.608;2023-04-07T07:16:57;97351.03;;;6.31;72.95
70254;BME280;57649;42.968;1.608;2023-04-07T07:19:22;97353.09;;;6.47;72.97
70254;BME280;57649;42.968;1.608;2023-04-07T07:21:47;97350.56;;;6.55;72.10
70254;BME280;57649;42.968;1.608;2023-04-07T07:24:13;97335.97;;;6.69;71.99
70254;BME280;57649;42.968;1.608;2023-04-07T07:26:51;97355.00;;;6.74;72.11
70254;BME280;57649;42.968;1.608;2023-04-07T07:29:17;97340.75;;;6.93;71.22
70254;BME280;57649;42.968;1.608;2023-04-07T07:31:42;97341.38;;;7.15;69.92
70254;BME280;57649;42.968;1.608;2023-04-07T07:34:07;97340.19;;;7.27;69.24
70254;BME280;57649;42.968;1.608;2023-04-07T07:36:33;97337.22;;;7.30;70.23
70254;BME280;57649;42.968;1.608;2023-04-07T07:38:58;97343.59;;;7.47;69.37
70254;BME280;57649;42.968;1.608;2023-04-07T07:41:24;97337.88;;;7.60;69.17
70254;BME280;57649;42.968;1.608;2023-04-07T07:43:50;97331.41;;;7.63;68.54
70254;BME280;57649;42.968;1.608;2023-04-07T07:46:15;97334.09;;;7.81;68.06
70254;BME280;57649;42.968;1.608;2023-04-07T07:48:41;97338.63;;;7.88;67.31
70254;BME280;57649;42.968;1.608;2023-04-07T07:51:06;97317.75;;;8.02;66.69
70254;BME280;57649;42.968;1.608;2023-04-07T07:53:31;97325.88;;;8.18;65.80
70254;BME280;57649;42.968;1.608;2023-04-07T07:55:57;97328.31;;;8.29;65.71
70254;BME280;57649;42.968;1.608;2023-04-07T07:58:22;97317.03;;;8.36;65.04
70254;BME280;57649;42.968;1.608;2023-04-07T08:00:48;97319.19;;;8.58;64.31
70254;BME280;57649;42.968;1.608;2023-04-07T08:03:13;97319.88;;;8.60;64.24
70254;BME280;57649;42.968;1.608;2023-04-07T08:05:39;97322.91;;;8.65;64.29
70254;BME280;57649;42.968;1.608;2023-04-07T08:08:04;97327.50;;;8.81;63.86
70254;BME280;57649;42.968;1.608;2023-04-07T08:10:30;97325.69;;;8.90;63.74
70254;BME280;57649;42.968;1.608;2023-04-07T08:12:55;97328.13;;;9.01;63.05
70254;BME280;57649;42.968;1.608;2023-04-07T08:15:21;97321.00;;;9.18;62.38
70254;BME280;57649;42.968;1.608;2023-04-07T08:17:46;97331.41;;;9.38;62.15
70254;BME280;57649;42.968;1.608;2023-04-07T08:20:11;97326.94;;;9.55;61.80
70254;BME280;57649;42.968;1.608;2023-04-07T08:22:37;97329.50;;;9.97;60.26
70254;BME280;57649;42.968;1.608;2023-04-07T08:25:02;97316.66;;;10.50;59.04
70254;BME280;57649;42.968;1.608;2023-04-07T08:27:28;97306.06;;;11.21;56.31
70254;BME280;57649;42.968;1.608;2023-04-07T08:30:03;97308.94;;;12.05;54.40
70254;BME280;57649;42.968;1.608;2023-04-07T08:32:41;97315.47;;;12.94;51.68
70254;BME280;57649;42.968;1.608;2023-04-07T08:35:07;97310.50;;;13.57;50.11
70254;BME280;57649;42.968;1.608;2023-04-07T08:37:33;97316.16;;;14.20;48.45
70254;BME280;57649;42.968;1.608;2023-04-07T08:40:03;97314.34;;;14.55;47.56
70254;BME280;57649;42.968;1.608;2023-04-07T08:42:31;97310.78;;;14.70;46.33
70254;BME280;57649;42.968;1.608;2023-04-07T08:45:04;97311.25;;;15.15;46.01
70254;BME280;57649;42.968;1.608;2023-04-07T08:47:31;97308.53;;;15.56;45.53
70254;BME280;57649;42.968;1.608;2023-04-07T08:50:01;97306.09;;;15.68;45.18
70254;BME280;57649;42.968;1.608;2023-04-07T08:52:49;97307.06;;;16.29;43.88
70254;BME280;57649;42.968;1.608;2023-04-07T08:55:15;97299.16;;;16.27;42.42
70254;BME280;57649;42.968;1.608;2023-04-07T08:57:41;97298.91;;;16.75;41.25
70254;BME280;57649;42.968;1.608;2023-04-07T09:00:07;97294.38;;;16.83;41.24
70254;BME280;57649;42.968;1.608;2023-04-07T09:02:36;97295.06;;;17.37;40.91
70254;BME280;57649;42.968;1.608;2023-04-07T09:05:03;97295.91;;;17.30;41.51
70254;BME280;57649;42.968;1.608;2023-04-07T09:07:31;97291.09;;;17.39;39.25
70254;BME280;57649;42.968;1.608;2023-04-07T09:09:57;97288.19;;;17.34;39.23
70254;BME280;57649;42.968;1.608;2023-04-07T09:12:23;97291.97;;;17.20;39.30
70254;BME280;57649;42.968;1.608;2023-04-07T09:14:49;97290.28;;;17.39;39.74
70254;BME280;57649;42.968;1.608;2023-04-07T09:17:14;97286.97;;;17.30;39.71
70254;BME280;57649;42.968;1.608;2023-04-07T09:19:40;97294.66;;;17.33;39.48
70254;BME280;57649;42.968;1.608;2023-04-07T09:22:05;97289.28;;;17.20;40.59
70254;BME280;57649;42.968;1.608;2023-04-07T09:24:31;97291.34;;;17.31;40.51
70254;BME280;57649;42.968;1.608;2023-04-07T09:27:09;97292.03;;;17.58;40.52
70254;BME280;57649;42.968;1.608;2023-04-07T09:29:35;97291.56;;;17.29;40.00
70254;BME280;57649;42.968;1.608;2023-04-07T09:32:01;97291.50;;;17.43;39.74
70254;BME280;57649;42.968;1.608;2023-04-07T09:34:27;97288.38;;;17.39;38.72
70254;BME280;57649;42.968;1.608;2023-04-07T09:36:53;97285.81;;;17.58;38.86
70254;BME280;57649;42.968;1.608;2023-04-07T09:39:19;97281.28;;;17.51;38.63
70254;BME280;57649;42.968;1.608;2023-04-07T09:41:45;97279.09;;;17.67;37.52
70254;BME280;57649;42.968;1.608;2023-04-07T09:44:10;97278.91;;;18.00;37.58
70254;BME280;57649;42.968;1.608;2023-04-07T09:49:15;97279.31;;;18.04;36.87
70254;BME280;57649;42.968;1.608;2023-04-07T09:51:57;97269.53;;;18.03;36.06
70254;BME280;57649;42.968;1.608;2023-04-07T09:54:34;97277.56;;;18.16;35.62
70254;BME280;57649;42.968;1.608;2023-04-07T09:57:01;97282.41;;;18.07;36.35
70254;BME280;57649;42.968;1.608;2023-04-07T09:59:28;97268.75;;;17.96;36.00
70254;BME280;57649;42.968;1.608;2023-04-07T10:01:53;97271.59;;;18.07;35.77
70254;BME280;57649;42.968;1.608;2023-04-07T10:04:19;97271.44;;;18.27;34.95
70254;BME280;57649;42.968;1.608;2023-04-07T10:06:46;97261.97;;;18.37;34.14
70254;BME280;57649;42.968;1.608;2023-04-07T10:09:12;97259.63;;;18.47;33.58
70254;BME280;57649;42.968;1.608;2023-04-07T10:11:41;97256.56;;;18.62;33.89
70254;BME280;57649;42.968;1.608;2023-04-07T10:14:09;97259.50;;;18.35;34.87
70254;BME280;57649;42.968;1.608;2023-04-07T10:16:36;97255.88;;;18.92;34.54
70254;BME280;57649;42.968;1.608;2023-04-07T10:19:03;97248.81;;;18.65;34.98
70254;BME280;57649;42.968;1.608;2023-04-07T10:21:31;97255.84;;;18.48;35.62
70254;BME280;57649;42.968;1.608;2023-04-07T10:24:23;97241.16;;;18.81;34.23
70254;BME280;57649;42.968;1.608;2023-04-07T10:26:59;97255.47;;;18.88;34.38
70254;BME280;57649;42.968;1.608;2023-04-07T10:29:31;97239.38;;;18.68;34.64
70254;BME280;57649;42.968;1.608;2023-04-07T10:32:00;97239.81;;;18.46;34.06
70254;BME280;57649;42.968;1.608;2023-04-07T10:34:58;97232.31;;;19.11;34.97
70254;BME280;57649;42.968;1.608;2023-04-07T10:37:25;97230.09;;;19.19;34.12
70254;BME280;57649;42.968;1.608;2023-04-07T10:42:44;97230.13;;;18.57;34.81
70254;BME280;57649;42.968;1.608;2023-04-07T10:45:10;97226.94;;;18.85;35.34
70254;BME280;57649;42.968;1.608;2023-04-07T10:50:26;97203.06;;;19.13;35.16
70254;BME280;57649;42.968;1.608;2023-04-07T10:53:13;97213.44;;;19.16;34.08
70254;BME280;57649;42.968;1.608;2023-04-07T10:55:45;97194.50;;;19.58;33.95
70254;BME280;57649;42.968;1.608;2023-04-07T10:58:30;97200.50;;;19.18;34.13
70254;BME280;57649;42.968;1.608;2023-04-07T11:03:22;97194.75;;;19.08;34.94
70254;BME280;57649;42.968;1.608;2023-04-07T11:05:48;97186.28;;;18.79;34.59
70254;BME280;57649;42.968;1.608;2023-04-07T11:08:13;97178.66;;;18.94;35.09
70254;BME280;57649;42.968;1.608;2023-04-07T11:10:39;97183.34;;;19.66;34.66
70254;BME280;57649;42.968;1.608;2023-04-07T11:13:06;97185.50;;;19.76;34.13
70254;BME280;57649;42.968;1.608;2023-04-07T11:15:32;97190.75;;;19.59;34.22
70254;BME280;57649;42.968;1.608;2023-04-07T11:18:15;97183.75;;;19.81;33.80
70254;BME280;57649;42.968;1.608;2023-04-07T11:23:11;97180.97;;;19.70;34.11
70254;BME280;57649;42.968;1.608;2023-04-07T11:25:36;97177.13;;;19.47;34.07
70254;BME280;57649;42.968;1.608;2023-04-07T11:28:05;97173.22;;;19.73;34.52
70254;BME280;57649;42.968;1.608;2023-04-07T11:30:31;97168.16;;;19.47;34.41
70254;BME280;57649;42.968;1.608;2023-04-07T11:32:56;97170.00;;;19.34;34.54
70254;BME280;57649;42.968;1.608;2023-04-07T11:35:22;97173.81;;;19.75;34.41
70254;BME280;57649;42.968;1.608;2023-04-07T11:37:48;97165.81;;;19.20;33.87
70254;BME280;57649;42.968;1.608;2023-04-07T11:40:30;97168.81;;;19.12;35.17
70254;BME280;57649;42.968;1.608;2023-04-07T11:42:57;97159.31;;;19.21;34.21
70254;BME280;57649;42.968;1.608;2023-04-07T11:45:22;97155.66;;;19.57;34.35
70254;BME280;57649;42.968;1.608;2023-04-07T11:47:48;97158.88;;;19.66;33.77
70254;BME280;57649;42.968;1.608;2023-04-07T11:50:15;97159.63;;;19.43;33.58
70254;BME280;57649;42.968;1.608;2023-04-07T11:52:45;97148.84;;;19.67;34.58
70254;BME280;57649;42.968;1.608;2023-04-07T11:55:21;97158.63;;;19.56;34.18
70254;BME280;57649;42.968;1.608;2023-04-07T11:57:49;97159.09;;;19.53;34.61
70254;BME280;57649;42.968;1.608;2023-04-07T12:00:19;97158.06;;;19.35;34.65
70254;BME280;57649;42.968;1.608;2023-04-07T12:02:44;97154.03;;;19.26;34.37
70254;BME280;57649;42.968;1.608;2023-04-07T12:05:10;97156.75;;;19.68;34.50
70254;BME280;57649;42.968;1.608;2023-04-07T12:07:37;97140.09;;;19.95;34.49
70254;BME280;57649;42.968;1.608;2023-04-07T12:10:22;97153.00;;;19.27;35.01
70254;BME280;57649;42.968;1.608;2023-04-07T12:12:50;97145.75;;;19.21;34.93
70254;BME280;57649;42.968;1.608;2023-04-07T12:15:16;97136.97;;;19.79;34.48
70254;BME280;57649;42.968;1.608;2023-04-07T12:17:46;97144.31;;;19.49;35.10
70254;BME280;57649;42.968;1.608;2023-04-07T12:20:13;97136.16;;;19.49;34.64
70254;BME280;57649;42.968;1.608;2023-04-07T12:22:39;97121.31;;;19.51;34.61
70254;BME280;57649;42.968;1.608;2023-04-07T12:25:05;97135.81;;;19.75;34.45
70254;BME280;57649;42.968;1.608;2023-04-07T12:27:30;97133.56;;;19.96;34.81
70254;BME280;57649;42.968;1.608;2023-04-07T12:29:56;97133.75;;;19.71;34.72
70254;BME280;57649;42.968;1.608;2023-04-07T12:32:21;97137.47;;;19.76;34.43
70254;BME280;57649;42.968;1.608;2023-04-07T12:34:46;97126.41;;;19.59;34.90
70254;BME280;57649;42.968;1.608;2023-04-07T12:37:12;97132.09;;;19.70;33.92
70254;BME280;57649;42.968;1.608;2023-04-07T12:39:38;97124.50;;;20.02;34.80
70254;BME280;57649;42.968;1.608;2023-04-07T12:42:03;97118.22;;;19.90;34.81
70254;BME280;57649;42.968;1.608;2023-04-07T12:44:30;97120.81;;;19.96;34.19
70254;BME280;57649;42.968;1.608;2023-04-07T12:46:55;97124.78;;;19.70;34.44
70254;BME280;57649;42.968;1.608;2023-04-07T12:49:21;97124.41;;;19.55;35.22
70254;BME280;57649;42.968;1.608;2023-04-07T12:51:46;97122.63;;;19.60;35.19
70254;BME280;57649;42.968;1.608;2023-04-07T12:54:11;97106.81;;;19.57;34.46
70254;BME280;57649;42.968;1.608;2023-04-07T12:56:37;97112.88;;;19.71;34.89
70254;BME280;57649;42.968;1.608;2023-04-07T12:59:04;97108.25;;;19.60;34.98
70254;BME280;57649;42.968;1.608;2023-04-07T13:01:29;97114.34;;;19.43;35.86
70254;BME280;57649;42.968;1.608;2023-04-07T13:03:55;97108.50;;;19.28;35.84
70254;BME280;57649;42.968;1.608;2023-04-07T13:06:21;97101.88;;;19.24;35.84
70254;BME280;57649;42.968;1.608;2023-04-07T13:08:46;97104.66;;;19.48;36.26
70254;BME280;57649;42.968;1.608;2023-04-07T13:11:11;97101.88;;;19.66;36.16
70254;BME280;57649;42.968;1.608;2023-04-07T13:13:37;97093.34;;;18.90;35.99
70254;BME280;57649;42.968;1.608;2023-04-07T13:16:02;97082.88;;;19.24;36.51
70254;BME280;57649;42.968;1.608;2023-04-07T13:18:28;97083.03;;;19.41;36.19
70254;BME280;57649;42.968;1.608;2023-04-07T13:20:53;97086.56;;;19.41;36.13
70254;BME280;57649;42.968;1.608;2023-04-07T13:23:19;97078.34;;;19.06;35.75